Terminal Aerodrome Forecast
Issued by NWS Flagstaff, AZ

Home | Current Version | Previous Version | Text Only | Print | Product List | Glossary On
Versions: 1 2 3 4 5 6 7 8 9 10 11 12 13 14 15
000
FTUS45 KFGZ 061734
TAFFLG
TAF
KFLG 061734Z 0618/0718 23011KT P6SM SCT070 BKN100
      TEMPO 0619/0623 5SM -TSRA BKN060CB
     FM070300 VRB03KT P6SM FEW070 BKN120
     FM070600 VRB02KT P6SM SCT120=

USA.gov is the U.S. government's official web portal to all federal, state and local government web resources and services.